sensor_id;sensor_type;location;lat;lon;timestamp;P1;durP1;ratioP1;P2;durP2;ratioP2
18425;SDS011;9340;48.756;9.226;2022-10-18T00:01:02;9.00;;;5.37;;
18425;SDS011;9340;48.756;9.226;2022-10-18T00:03:30;5.20;;;4.70;;
18425;SDS011;9340;48.756;9.226;2022-10-18T00:05:58;8.47;;;5.73;;
18425;SDS011;9340;48.756;9.226;2022-10-18T00:08:25;9.43;;;5.00;;
18425;SDS011;9340;48.756;9.226;2022-10-18T00:10:53;6.90;;;6.20;;
18425;SDS011;9340;48.756;9.226;2022-10-18T00:13:20;12.90;;;5.50;;
18425;SDS011;9340;48.756;9.226;2022-10-18T00:15:48;10.83;;;5.77;;
18425;SDS011;9340;48.756;9.226;2022-10-18T00:18:15;8.80;;;5.40;;
18425;SDS011;9340;48.756;9.226;2022-10-18T00:20:42;5.30;;;4.80;;
18425;SDS011;9340;48.756;9.226;2022-10-18T00:23:10;7.80;;;5.73;;
18425;SDS011;9340;48.756;9.226;2022-10-18T00:25:37;7.57;;;5.60;;
18425;SDS011;9340;48.756;9.226;2022-10-18T00:28:03;5.30;;;4.67;;
18425;SDS011;9340;48.756;9.226;2022-10-18T00:30:30;7.43;;;5.53;;
18425;SDS011;9340;48.756;9.226;2022-10-18T00:32:57;5.77;;;4.97;;
18425;SDS011;9340;48.756;9.226;2022-10-18T00:35:24;6.03;;;5.37;;
18425;SDS011;9340;48.756;9.226;2022-10-18T00:37:51;9.30;;;6.67;;
18425;SDS011;9340;48.756;9.226;2022-10-18T00:40:19;8.23;;;5.17;;
18425;SDS011;9340;48.756;9.226;2022-10-18T00:42:45;7.50;;;5.57;;
18425;SDS011;9340;48.756;9.226;2022-10-18T00:45:19;8.40;;;6.50;;
18425;SDS011;9340;48.756;9.226;2022-10-18T00:47:48;8.53;;;5.40;;
18425;SDS011;9340;48.756;9.226;2022-10-18T00:50:18;8.73;;;5.43;;
18425;SDS011;9340;48.756;9.226;2022-10-18T00:52:47;6.77;;;5.27;;
18425;SDS011;9340;48.756;9.226;2022-10-18T00:55:18;12.17;;;5.60;;
18425;SDS011;9340;48.756;9.226;2022-10-18T00:57:45;8.53;;;6.77;;
18425;SDS011;9340;48.756;9.226;2022-10-18T01:00:12;7.20;;;6.50;;
18425;SDS011;9340;48.756;9.226;2022-10-18T01:02:40;8.20;;;5.60;;
18425;SDS011;9340;48.756;9.226;2022-10-18T01:05:09;11.23;;;5.40;;
18425;SDS011;9340;48.756;9.226;2022-10-18T01:07:47;7.60;;;6.23;;
18425;SDS011;9340;48.756;9.226;2022-10-18T01:10:38;9.00;;;5.00;;
18425;SDS011;9340;48.756;9.226;2022-10-18T01:13:16;9.23;;;5.83;;
18425;SDS011;9340;48.756;9.226;2022-10-18T01:15:55;8.03;;;5.33;;
18425;SDS011;9340;48.756;9.226;2022-10-18T01:18:26;7.60;;;4.77;;
18425;SDS011;9340;48.756;9.226;2022-10-18T01:20:59;6.03;;;5.17;;
18425;SDS011;9340;48.756;9.226;2022-10-18T01:23:56;6.30;;;4.90;;
18425;SDS011;9340;48.756;9.226;2022-10-18T01:26:47;7.13;;;5.30;;
18425;SDS011;9340;48.756;9.226;2022-10-18T01:29:35;9.63;;;5.70;;
18425;SDS011;9340;48.756;9.226;2022-10-18T01:32:11;10.87;;;5.87;;
18425;SDS011;9340;48.756;9.226;2022-10-18T01:34:40;9.93;;;5.90;;
18425;SDS011;9340;48.756;9.226;2022-10-18T01:37:12;7.33;;;5.97;;
18425;SDS011;9340;48.756;9.226;2022-10-18T01:39:42;11.97;;;5.67;;
18425;SDS011;9340;48.756;9.226;2022-10-18T01:42:12;7.87;;;5.93;;
18425;SDS011;9340;48.756;9.226;2022-10-18T01:44:43;6.90;;;6.13;;
18425;SDS011;9340;48.756;9.226;2022-10-18T01:47:12;8.13;;;5.90;;
18425;SDS011;9340;48.756;9.226;2022-10-18T01:49:40;7.17;;;5.43;;
18425;SDS011;9340;48.756;9.226;2022-10-18T01:52:08;9.73;;;6.03;;
18425;SDS011;9340;48.756;9.226;2022-10-18T01:54:36;8.73;;;6.50;;
18425;SDS011;9340;48.756;9.226;2022-10-18T01:57:07;8.57;;;6.13;;
18425;SDS011;9340;48.756;9.226;2022-10-18T01:59:42;7.30;;;6.23;;
18425;SDS011;9340;48.756;9.226;2022-10-18T02:02:20;7.27;;;5.67;;
18425;SDS011;9340;48.756;9.226;2022-10-18T02:05:05;8.70;;;5.43;;
18425;SDS011;9340;48.756;9.226;2022-10-18T02:07:38;12.13;;;6.13;;
18425;SDS011;9340;48.756;9.226;2022-10-18T02:10:10;12.90;;;7.30;;
18425;SDS011;9340;48.756;9.226;2022-10-18T02:12:42;6.50;;;5.47;;
18425;SDS011;9340;48.756;9.226;2022-10-18T02:15:12;7.27;;;6.43;;
18425;SDS011;9340;48.756;9.226;2022-10-18T02:17:43;11.03;;;6.00;;
18425;SDS011;9340;48.756;9.226;2022-10-18T02:20:11;8.87;;;5.70;;
18425;SDS011;9340;48.756;9.226;2022-10-18T02:22:40;6.57;;;5.80;;
18425;SDS011;9340;48.756;9.226;2022-10-18T02:25:12;5.97;;;5.37;;
18425;SDS011;9340;48.756;9.226;2022-10-18T02:27:41;8.60;;;5.83;;
18425;SDS011;9340;48.756;9.226;2022-10-18T02:30:08;8.10;;;5.20;;
18425;SDS011;9340;48.756;9.226;2022-10-18T02:32:37;11.70;;;7.17;;
18425;SDS011;9340;48.756;9.226;2022-10-18T02:35:08;10.43;;;6.13;;
18425;SDS011;9340;48.756;9.226;2022-10-18T02:37:40;10.33;;;7.27;;
18425;SDS011;9340;48.756;9.226;2022-10-18T02:40:08;7.27;;;5.93;;
18425;SDS011;9340;48.756;9.226;2022-10-18T02:42:36;9.37;;;6.37;;
18425;SDS011;9340;48.756;9.226;2022-10-18T02:45:04;8.43;;;6.47;;
18425;SDS011;9340;48.756;9.226;2022-10-18T02:47:32;7.03;;;6.23;;
18425;SDS011;9340;48.756;9.226;2022-10-18T02:49:59;9.73;;;7.37;;
18425;SDS011;9340;48.756;9.226;2022-10-18T02:52:27;8.67;;;6.53;;
18425;SDS011;9340;48.756;9.226;2022-10-18T02:54:53;11.60;;;5.80;;
18425;SDS011;9340;48.756;9.226;2022-10-18T02:57:20;7.40;;;5.73;;
18425;SDS011;9340;48.756;9.226;2022-10-18T02:59:47;10.80;;;6.37;;
18425;SDS011;9340;48.756;9.226;2022-10-18T03:02:13;8.10;;;6.33;;
18425;SDS011;9340;48.756;9.226;2022-10-18T03:04:40;9.80;;;6.37;;
18425;SDS011;9340;48.756;9.226;2022-10-18T03:07:07;6.57;;;5.10;;
18425;SDS011;9340;48.756;9.226;2022-10-18T03:09:35;7.33;;;6.17;;
18425;SDS011;9340;48.756;9.226;2022-10-18T03:12:01;7.27;;;6.27;;
18425;SDS011;9340;48.756;9.226;2022-10-18T03:14:28;9.07;;;5.53;;
18425;SDS011;9340;48.756;9.226;2022-10-18T03:16:55;15.90;;;6.80;;
18425;SDS011;9340;48.756;9.226;2022-10-18T03:19:22;7.17;;;6.17;;
18425;SDS011;9340;48.756;9.226;2022-10-18T03:21:48;5.93;;;5.30;;
18425;SDS011;9340;48.756;9.226;2022-10-18T03:24:15;8.47;;;6.03;;
18425;SDS011;9340;48.756;9.226;2022-10-18T03:26:43;8.87;;;5.67;;
18425;SDS011;9340;48.756;9.226;2022-10-18T03:29:10;11.43;;;6.17;;
18425;SDS011;9340;48.756;9.226;2022-10-18T03:31:37;6.17;;;5.57;;
18425;SDS011;9340;48.756;9.226;2022-10-18T03:34:04;8.63;;;5.93;;
18425;SDS011;9340;48.756;9.226;2022-10-18T03:36:30;15.00;;;7.23;;
18425;SDS011;9340;48.756;9.226;2022-10-18T03:38:58;6.77;;;6.17;;
18425;SDS011;9340;48.756;9.226;2022-10-18T03:41:25;11.13;;;6.43;;
18425;SDS011;9340;48.756;9.226;2022-10-18T03:43:53;10.87;;;6.50;;
18425;SDS011;9340;48.756;9.226;2022-10-18T03:46:20;5.73;;;5.17;;
18425;SDS011;9340;48.756;9.226;2022-10-18T03:48:46;6.90;;;5.27;;
18425;SDS011;9340;48.756;9.226;2022-10-18T03:51:13;7.90;;;5.07;;
18425;SDS011;9340;48.756;9.226;2022-10-18T03:53:40;8.63;;;6.30;;
18425;SDS011;9340;48.756;9.226;2022-10-18T03:56:06;7.73;;;6.43;;
18425;SDS011;9340;48.756;9.226;2022-10-18T03:58:33;7.57;;;5.97;;
18425;SDS011;9340;48.756;9.226;2022-10-18T04:01:01;6.87;;;5.97;;
18425;SDS011;9340;48.756;9.226;2022-10-18T04:03:28;6.07;;;5.47;;
18425;SDS011;9340;48.756;9.226;2022-10-18T04:05:54;13.07;;;6.70;;
18425;SDS011;9340;48.756;9.226;2022-10-18T04:08:21;6.83;;;5.77;;
18425;SDS011;9340;48.756;9.226;2022-10-18T04:10:48;6.53;;;5.80;;
18425;SDS011;9340;48.756;9.226;2022-10-18T04:13:16;11.23;;;7.03;;
18425;SDS011;9340;48.756;9.226;2022-10-18T04:15:43;9.47;;;5.93;;
18425;SDS011;9340;48.756;9.226;2022-10-18T04:18:11;8.73;;;6.00;;
18425;SDS011;9340;48.756;9.226;2022-10-18T04:20:38;11.63;;;6.53;;
18425;SDS011;9340;48.756;9.226;2022-10-18T04:23:04;9.23;;;6.17;;
18425;SDS011;9340;48.756;9.226;2022-10-18T04:25:31;8.90;;;6.03;;
18425;SDS011;9340;48.756;9.226;2022-10-18T04:27:57;8.13;;;6.40;;
18425;SDS011;9340;48.756;9.226;2022-10-18T04:30:24;8.37;;;5.70;;
18425;SDS011;9340;48.756;9.226;2022-10-18T04:32:51;6.77;;;5.70;;
18425;SDS011;9340;48.756;9.226;2022-10-18T04:35:19;8.10;;;5.17;;
18425;SDS011;9340;48.756;9.226;2022-10-18T04:37:48;8.03;;;5.73;;
18425;SDS011;9340;48.756;9.226;2022-10-18T04:40:15;6.10;;;5.50;;
18425;SDS011;9340;48.756;9.226;2022-10-18T04:42:41;6.53;;;5.00;;
18425;SDS011;9340;48.756;9.226;2022-10-18T04:45:08;6.47;;;4.80;;
18425;SDS011;9340;48.756;9.226;2022-10-18T04:47:36;5.60;;;4.37;;
18425;SDS011;9340;48.756;9.226;2022-10-18T04:50:03;8.33;;;5.50;;
18425;SDS011;9340;48.756;9.226;2022-10-18T04:52:31;11.53;;;5.37;;
18425;SDS011;9340;48.756;9.226;2022-10-18T04:54:58;6.33;;;5.37;;
18425;SDS011;9340;48.756;9.226;2022-10-18T04:57:25;7.33;;;4.90;;
18425;SDS011;9340;48.756;9.226;2022-10-18T04:59:51;6.57;;;5.87;;
18425;SDS011;9340;48.756;9.226;2022-10-18T05:02:18;6.40;;;5.40;;
18425;SDS011;9340;48.756;9.226;2022-10-18T05:04:45;9.57;;;6.00;;
18425;SDS011;9340;48.756;9.226;2022-10-18T05:07:11;9.70;;;5.93;;
18425;SDS011;9340;48.756;9.226;2022-10-18T05:09:39;10.93;;;5.73;;
18425;SDS011;9340;48.756;9.226;2022-10-18T05:12:06;6.77;;;5.90;;
18425;SDS011;9340;48.756;9.226;2022-10-18T05:14:33;5.97;;;5.33;;
18425;SDS011;9340;48.756;9.226;2022-10-18T05:16:59;8.20;;;4.93;;
18425;SDS011;9340;48.756;9.226;2022-10-18T05:19:26;6.33;;;4.20;;
18425;SDS011;9340;48.756;9.226;2022-10-18T05:21:53;7.30;;;5.07;;
18425;SDS011;9340;48.756;9.226;2022-10-18T05:24:20;12.73;;;5.07;;
18425;SDS011;9340;48.756;9.226;2022-10-18T05:26:48;8.10;;;5.10;;
18425;SDS011;9340;48.756;9.226;2022-10-18T05:29:15;9.10;;;5.00;;
18425;SDS011;9340;48.756;9.226;2022-10-18T05:31:41;6.23;;;4.83;;
18425;SDS011;9340;48.756;9.226;2022-10-18T05:34:08;8.50;;;5.13;;
18425;SDS011;9340;48.756;9.226;2022-10-18T05:36:35;5.50;;;5.00;;
18425;SDS011;9340;48.756;9.226;2022-10-18T05:39:02;6.40;;;4.67;;
18425;SDS011;9340;48.756;9.226;2022-10-18T05:41:29;7.90;;;4.80;;
18425;SDS011;9340;48.756;9.226;2022-10-18T05:43:57;5.10;;;4.60;;
18425;SDS011;9340;48.756;9.226;2022-10-18T05:46:27;6.63;;;4.83;;
18425;SDS011;9340;48.756;9.226;2022-10-18T05:48:54;6.17;;;5.00;;
18425;SDS011;9340;48.756;9.226;2022-10-18T05:51:20;11.90;;;6.80;;
18425;SDS011;9340;48.756;9.226;2022-10-18T05:53:47;12.83;;;5.53;;
18425;SDS011;9340;48.756;9.226;2022-10-18T05:56:14;10.70;;;5.07;;
18425;SDS011;9340;48.756;9.226;2022-10-18T05:58:40;11.87;;;6.33;;
18425;SDS011;9340;48.756;9.226;2022-10-18T06:01:09;12.73;;;5.23;;
18425;SDS011;9340;48.756;9.226;2022-10-18T06:03:36;11.37;;;5.43;;
18425;SDS011;9340;48.756;9.226;2022-10-18T06:06:03;11.90;;;5.60;;
18425;SDS011;9340;48.756;9.226;2022-10-18T06:08:32;10.67;;;5.17;;
18425;SDS011;9340;48.756;9.226;2022-10-18T06:10:59;8.23;;;5.63;;
18425;SDS011;9340;48.756;9.226;2022-10-18T06:13:31;14.77;;;5.90;;
18425;SDS011;9340;48.756;9.226;2022-10-18T06:15:58;9.53;;;5.43;;
18425;SDS011;9340;48.756;9.226;2022-10-18T06:18:26;7.33;;;5.20;;
18425;SDS011;9340;48.756;9.226;2022-10-18T06:20:55;6.73;;;5.30;;
18425;SDS011;9340;48.756;9.226;2022-10-18T06:23:22;9.37;;;5.10;;
18425;SDS011;9340;48.756;9.226;2022-10-18T06:25:49;9.50;;;5.17;;
18425;SDS011;9340;48.756;9.226;2022-10-18T06:28:16;5.50;;;4.70;;
18425;SDS011;9340;48.756;9.226;2022-10-18T06:30:43;7.77;;;5.00;;
18425;SDS011;9340;48.756;9.226;2022-10-18T06:33:09;7.33;;;5.37;;
18425;SDS011;9340;48.756;9.226;2022-10-18T06:35:38;9.73;;;5.00;;
18425;SDS011;9340;48.756;9.226;2022-10-18T06:38:04;7.33;;;4.53;;
18425;SDS011;9340;48.756;9.226;2022-10-18T06:40:31;7.90;;;4.67;;
18425;SDS011;9340;48.756;9.226;2022-10-18T06:43:01;4.73;;;4.10;;
18425;SDS011;9340;48.756;9.226;2022-10-18T06:45:30;5.73;;;4.40;;
18425;SDS011;9340;48.756;9.226;2022-10-18T06:47:57;5.73;;;3.80;;
18425;SDS011;9340;48.756;9.226;2022-10-18T06:50:23;7.97;;;4.20;;
18425;SDS011;9340;48.756;9.226;2022-10-18T06:52:51;6.23;;;4.60;;
18425;SDS011;9340;48.756;9.226;2022-10-18T06:55:18;5.80;;;4.00;;
18425;SDS011;9340;48.756;9.226;2022-10-18T06:57:45;6.63;;;4.60;;
18425;SDS011;9340;48.756;9.226;2022-10-18T07:00:12;4.35;;;3.85;;
18425;SDS011;9340;48.756;9.226;2022-10-18T07:02:39;5.47;;;3.85;;
18425;SDS011;9340;48.756;9.226;2022-10-18T07:05:06;4.63;;;4.00;;
18425;SDS011;9340;48.756;9.226;2022-10-18T07:07:34;3.92;;;3.60;;
18425;SDS011;9340;48.756;9.226;2022-10-18T07:10:02;4.50;;;3.90;;
18425;SDS011;9340;48.756;9.226;2022-10-18T07:12:30;6.20;;;4.00;;
18425;SDS011;9340;48.756;9.226;2022-10-18T07:14:57;11.70;;;4.25;;
18425;SDS011;9340;48.756;9.226;2022-10-18T07:17:23;4.43;;;4.03;;
18425;SDS011;9340;48.756;9.226;2022-10-18T07:19:50;6.18;;;4.28;;
18425;SDS011;9340;48.756;9.226;2022-10-18T07:22:17;7.63;;;4.07;;
18425;SDS011;9340;48.756;9.226;2022-10-18T07:24:43;4.72;;;4.22;;
18425;SDS011;9340;48.756;9.226;2022-10-18T07:27:11;4.55;;;4.15;;
18425;SDS011;9340;48.756;9.226;2022-10-18T07:29:38;8.70;;;4.10;;
18425;SDS011;9340;48.756;9.226;2022-10-18T07:32:05;5.28;;;4.05;;
18425;SDS011;9340;48.756;9.226;2022-10-18T07:34:31;4.75;;;3.65;;
18425;SDS011;9340;48.756;9.226;2022-10-18T07:37:00;3.67;;;3.30;;
18425;SDS011;9340;48.756;9.226;2022-10-18T07:39:27;4.07;;;3.67;;
18425;SDS011;9340;48.756;9.226;2022-10-18T07:41:53;3.97;;;3.55;;
18425;SDS011;9340;48.756;9.226;2022-10-18T07:44:21;5.45;;;3.60;;
18425;SDS011;9340;48.756;9.226;2022-10-18T07:46:48;9.60;;;3.88;;
18425;SDS011;9340;48.756;9.226;2022-10-18T07:49:15;4.95;;;4.30;;
18425;SDS011;9340;48.756;9.226;2022-10-18T07:51:42;5.90;;;3.88;;
18425;SDS011;9340;48.756;9.226;2022-10-18T07:54:08;4.20;;;3.75;;
18425;SDS011;9340;48.756;9.226;2022-10-18T07:56:35;4.68;;;3.58;;
18425;SDS011;9340;48.756;9.226;2022-10-18T07:59:02;4.32;;;3.92;;
18425;SDS011;9340;48.756;9.226;2022-10-18T08:01:30;5.90;;;3.95;;
18425;SDS011;9340;48.756;9.226;2022-10-18T08:03:56;5.90;;;3.75;;
18425;SDS011;9340;48.756;9.226;2022-10-18T08:06:24;5.43;;;4.35;;
18425;SDS011;9340;48.756;9.226;2022-10-18T08:08:51;4.90;;;3.72;;
18425;SDS011;9340;48.756;9.226;2022-10-18T08:11:19;5.22;;;3.70;;
18425;SDS011;9340;48.756;9.226;2022-10-18T08:13:47;4.93;;;4.10;;
18425;SDS011;9340;48.756;9.226;2022-10-18T08:16:14;4.43;;;3.80;;
18425;SDS011;9340;48.756;9.226;2022-10-18T08:18:44;6.25;;;3.88;;
18425;SDS011;9340;48.756;9.226;2022-10-18T08:21:11;4.18;;;3.78;;
18425;SDS011;9340;48.756;9.226;2022-10-18T08:23:39;4.95;;;3.70;;
18425;SDS011;9340;48.756;9.226;2022-10-18T08:26:07;4.15;;;3.75;;
18425;SDS011;9340;48.756;9.226;2022-10-18T08:28:35;5.15;;;4.13;;
18425;SDS011;9340;48.756;9.226;2022-10-18T08:31:02;6.10;;;3.85;;
18425;SDS011;9340;48.756;9.226;2022-10-18T08:33:29;5.00;;;3.58;;
18425;SDS011;9340;48.756;9.226;2022-10-18T08:35:58;4.55;;;3.85;;
18425;SDS011;9340;48.756;9.226;2022-10-18T08:38:27;4.85;;;3.95;;
18425;SDS011;9340;48.756;9.226;2022-10-18T08:40:55;5.75;;;4.18;;
18425;SDS011;9340;48.756;9.226;2022-10-18T08:43:25;5.43;;;3.90;;
18425;SDS011;9340;48.756;9.226;2022-10-18T08:45:59;3.88;;;3.58;;
18425;SDS011;9340;48.756;9.226;2022-10-18T08:48:29;5.78;;;3.75;;
18425;SDS011;9340;48.756;9.226;2022-10-18T08:51:01;6.03;;;3.72;;
18425;SDS011;9340;48.756;9.226;2022-10-18T08:53:33;4.60;;;3.40;;
18425;SDS011;9340;48.756;9.226;2022-10-18T08:56:06;5.32;;;3.92;;
18425;SDS011;9340;48.756;9.226;2022-10-18T08:58:38;6.05;;;3.88;;
18425;SDS011;9340;48.756;9.226;2022-10-18T09:01:10;3.92;;;3.50;;
18425;SDS011;9340;48.756;9.226;2022-10-18T09:03:54;5.65;;;4.00;;
18425;SDS011;9340;48.756;9.226;2022-10-18T09:06:29;4.80;;;3.35;;
18425;SDS011;9340;48.756;9.226;2022-10-18T09:09:02;3.90;;;3.22;;
18425;SDS011;9340;48.756;9.226;2022-10-18T09:11:46;6.45;;;3.83;;
18425;SDS011;9340;48.756;9.226;2022-10-18T09:14:41;4.05;;;3.70;;
18425;SDS011;9340;48.756;9.226;2022-10-18T09:17:31;7.93;;;4.70;;
18425;SDS011;9340;48.756;9.226;2022-10-18T09:20:08;7.82;;;5.18;;
18425;SDS011;9340;48.756;9.226;2022-10-18T09:22:49;6.68;;;4.88;;
18425;SDS011;9340;48.756;9.226;2022-10-18T09:25:19;9.60;;;5.43;;
18425;SDS011;9340;48.756;9.226;2022-10-18T09:27:50;4.15;;;3.70;;
18425;SDS011;9340;48.756;9.226;2022-10-18T09:30:21;7.57;;;3.88;;
18425;SDS011;9340;48.756;9.226;2022-10-18T09:33:00;5.07;;;4.03;;
18425;SDS011;9340;48.756;9.226;2022-10-18T09:35:37;5.15;;;3.75;;
18425;SDS011;9340;48.756;9.226;2022-10-18T09:38:09;4.68;;;3.20;;
18425;SDS011;9340;48.756;9.226;2022-10-18T09:40:42;4.10;;;3.10;;
18425;SDS011;9340;48.756;9.226;2022-10-18T09:43:15;4.05;;;3.22;;
18425;SDS011;9340;48.756;9.226;2022-10-18T09:45:46;6.68;;;3.63;;
18425;SDS011;9340;48.756;9.226;2022-10-18T09:48:14;4.55;;;2.92;;
18425;SDS011;9340;48.756;9.226;2022-10-18T09:50:46;3.90;;;3.33;;
18425;SDS011;9340;48.756;9.226;2022-10-18T09:53:19;5.07;;;3.22;;
18425;SDS011;9340;48.756;9.226;2022-10-18T09:55:52;5.00;;;3.78;;
18425;SDS011;9340;48.756;9.226;2022-10-18T09:58:24;5.75;;;4.03;;
18425;SDS011;9340;48.756;9.226;2022-10-18T10:00:53;5.85;;;4.22;;
18425;SDS011;9340;48.756;9.226;2022-10-18T10:03:21;5.03;;;4.40;;
18425;SDS011;9340;48.756;9.226;2022-10-18T10:05:47;4.95;;;4.55;;
18425;SDS011;9340;48.756;9.226;2022-10-18T10:08:32;4.55;;;4.00;;
18425;SDS011;9340;48.756;9.226;2022-10-18T10:10:59;8.30;;;3.95;;
18425;SDS011;9340;48.756;9.226;2022-10-18T10:13:26;8.00;;;4.38;;
18425;SDS011;9340;48.756;9.226;2022-10-18T10:15:53;8.52;;;3.83;;
18425;SDS011;9340;48.756;9.226;2022-10-18T10:18:22;4.65;;;4.20;;
18425;SDS011;9340;48.756;9.226;2022-10-18T10:20:52;7.43;;;4.18;;
18425;SDS011;9340;48.756;9.226;2022-10-18T10:23:21;5.78;;;4.90;;
18425;SDS011;9340;48.756;9.226;2022-10-18T10:25:52;7.63;;;4.90;;
18425;SDS011;9340;48.756;9.226;2022-10-18T10:28:21;5.25;;;4.65;;
18425;SDS011;9340;48.756;9.226;2022-10-18T10:30:52;7.40;;;4.60;;
18425;SDS011;9340;48.756;9.226;2022-10-18T10:33:32;5.60;;;5.07;;
18425;SDS011;9340;48.756;9.226;2022-10-18T10:36:01;8.77;;;5.07;;
18425;SDS011;9340;48.756;9.226;2022-10-18T10:38:29;8.32;;;4.75;;
18425;SDS011;9340;48.756;9.226;2022-10-18T10:40:57;5.45;;;4.63;;
18425;SDS011;9340;48.756;9.226;2022-10-18T10:43:25;8.32;;;4.15;;
18425;SDS011;9340;48.756;9.226;2022-10-18T10:45:57;4.80;;;4.40;;
18425;SDS011;9340;48.756;9.226;2022-10-18T10:48:26;5.88;;;5.15;;
18425;SDS011;9340;48.756;9.226;2022-10-18T10:50:57;6.60;;;5.53;;
18425;SDS011;9340;48.756;9.226;2022-10-18T10:53:32;5.38;;;4.88;;
18425;SDS011;9340;48.756;9.226;2022-10-18T10:56:05;8.35;;;5.20;;
18425;SDS011;9340;48.756;9.226;2022-10-18T10:58:38;9.02;;;5.28;;
18425;SDS011;9340;48.756;9.226;2022-10-18T11:01:23;6.10;;;5.05;;
18425;SDS011;9340;48.756;9.226;2022-10-18T11:03:55;5.97;;;4.43;;
18425;SDS011;9340;48.756;9.226;2022-10-18T11:06:35;9.90;;;4.70;;
18425;SDS011;9340;48.756;9.226;2022-10-18T11:09:09;5.88;;;3.92;;
18425;SDS011;9340;48.756;9.226;2022-10-18T11:11:46;7.38;;;5.10;;
18425;SDS011;9340;48.756;9.226;2022-10-18T11:14:24;5.72;;;3.92;;
18425;SDS011;9340;48.756;9.226;2022-10-18T11:16:55;4.90;;;4.40;;
18425;SDS011;9340;48.756;9.226;2022-10-18T11:19:30;7.07;;;4.32;;
18425;SDS011;9340;48.756;9.226;2022-10-18T11:22:03;6.50;;;5.00;;
18425;SDS011;9340;48.756;9.226;2022-10-18T11:24:34;6.43;;;4.75;;
18425;SDS011;9340;48.756;9.226;2022-10-18T11:27:05;7.72;;;4.55;;
18425;SDS011;9340;48.756;9.226;2022-10-18T11:29:42;8.65;;;5.00;;
18425;SDS011;9340;48.756;9.226;2022-10-18T11:32:24;5.00;;;4.50;;
18425;SDS011;9340;48.756;9.226;2022-10-18T11:34:58;7.57;;;4.82;;
18425;SDS011;9340;48.756;9.226;2022-10-18T11:37:36;6.28;;;4.57;;
18425;SDS011;9340;48.756;9.226;2022-10-18T11:40:17;9.10;;;4.78;;
18425;SDS011;9340;48.756;9.226;2022-10-18T11:42:59;5.40;;;4.22;;
18425;SDS011;9340;48.756;9.226;2022-10-18T11:45:35;7.28;;;3.83;;
18425;SDS011;9340;48.756;9.226;2022-10-18T11:48:11;15.88;;;8.88;;
18425;SDS011;9340;48.756;9.226;2022-10-18T11:50:49;5.35;;;4.82;;
18425;SDS011;9340;48.756;9.226;2022-10-18T11:53:24;7.07;;;4.90;;
18425;SDS011;9340;48.756;9.226;2022-10-18T11:56:01;6.35;;;5.20;;
18425;SDS011;9340;48.756;9.226;2022-10-18T11:58:41;7.35;;;5.82;;
18425;SDS011;9340;48.756;9.226;2022-10-18T12:01:19;7.05;;;4.75;;
18425;SDS011;9340;48.756;9.226;2022-10-18T12:03:54;7.45;;;4.68;;
18425;SDS011;9340;48.756;9.226;2022-10-18T12:06:27;7.50;;;4.50;;
18425;SDS011;9340;48.756;9.226;2022-10-18T12:08:58;5.45;;;4.15;;
18425;SDS011;9340;48.756;9.226;2022-10-18T12:11:29;7.15;;;4.85;;
18425;SDS011;9340;48.756;9.226;2022-10-18T12:14:00;5.60;;;4.07;;
18425;SDS011;9340;48.756;9.226;2022-10-18T12:16:31;8.18;;;4.03;;
18425;SDS011;9340;48.756;9.226;2022-10-18T12:19:02;4.85;;;4.40;;
18425;SDS011;9340;48.756;9.226;2022-10-18T12:21:32;8.18;;;5.07;;
18425;SDS011;9340;48.756;9.226;2022-10-18T12:24:01;7.97;;;4.35;;
18425;SDS011;9340;48.756;9.226;2022-10-18T12:26:30;6.70;;;3.78;;
18425;SDS011;9340;48.756;9.226;2022-10-18T12:29:03;7.30;;;4.80;;
18425;SDS011;9340;48.756;9.226;2022-10-18T12:31:37;9.05;;;4.45;;
18425;SDS011;9340;48.756;9.226;2022-10-18T12:34:16;4.45;;;4.05;;
18425;SDS011;9340;48.756;9.226;2022-10-18T12:37:04;7.80;;;4.28;;
18425;SDS011;9340;48.756;9.226;2022-10-18T12:39:50;4.15;;;3.75;;
18425;SDS011;9340;48.756;9.226;2022-10-18T12:42:21;5.07;;;3.53;;
18425;SDS011;9340;48.756;9.226;2022-10-18T12:44:59;4.28;;;3.72;;
18425;SDS011;9340;48.756;9.226;2022-10-18T12:47:27;7.82;;;3.90;;
18425;SDS011;9340;48.756;9.226;2022-10-18T12:49:56;7.10;;;3.40;;
18425;SDS011;9340;48.756;9.226;2022-10-18T12:52:24;6.68;;;3.78;;
18425;SDS011;9340;48.756;9.226;2022-10-18T12:55:00;5.15;;;3.10;;
18425;SDS011;9340;48.756;9.226;2022-10-18T13:03:38;3.30;;;3.05;;
18425;SDS011;9340;48.756;9.226;2022-10-18T13:06:20;3.10;;;2.28;;
18425;SDS011;9340;48.756;9.226;2022-10-18T13:11:44;4.63;;;2.97;;
18425;SDS011;9340;48.756;9.226;2022-10-18T13:14:16;4.10;;;3.63;;
18425;SDS011;9340;48.756;9.226;2022-10-18T13:17:02;7.53;;;4.05;;
18425;SDS011;9340;48.756;9.226;2022-10-18T13:19:39;7.90;;;3.80;;
18425;SDS011;9340;48.756;9.226;2022-10-18T13:22:19;7.70;;;3.90;;
18425;SDS011;9340;48.756;9.226;2022-10-18T13:24:57;4.68;;;3.50;;
18425;SDS011;9340;48.756;9.226;2022-10-18T13:27:30;4.63;;;3.63;;
18425;SDS011;9340;48.756;9.226;2022-10-18T13:30:21;3.92;;;3.53;;
18425;SDS011;9340;48.756;9.226;2022-10-18T13:33:13;5.55;;;3.03;;
18425;SDS011;9340;48.756;9.226;2022-10-18T13:35:52;5.47;;;3.20;;
18425;SDS011;9340;48.756;9.226;2022-10-18T13:38:37;6.03;;;4.03;;
18425;SDS011;9340;48.756;9.226;2022-10-18T13:41:07;4.78;;;2.90;;
18425;SDS011;9340;48.756;9.226;2022-10-18T13:46:22;3.63;;;2.88;;
18425;SDS011;9340;48.756;9.226;2022-10-18T13:48:51;3.63;;;2.60;;
18425;SDS011;9340;48.756;9.226;2022-10-18T13:51:39;3.15;;;2.85;;
18425;SDS011;9340;48.756;9.226;2022-10-18T13:54:20;4.75;;;2.80;;
18425;SDS011;9340;48.756;9.226;2022-10-18T13:57:04;4.70;;;2.55;;
18425;SDS011;9340;48.756;9.226;2022-10-18T13:59:52;6.70;;;2.70;;
18425;SDS011;9340;48.756;9.226;2022-10-18T14:02:41;5.30;;;3.20;;
18425;SDS011;9340;48.756;9.226;2022-10-18T14:05:21;4.28;;;2.90;;
18425;SDS011;9340;48.756;9.226;2022-10-18T14:07:58;3.33;;;2.30;;
18425;SDS011;9340;48.756;9.226;2022-10-18T14:10:31;5.05;;;2.85;;
18425;SDS011;9340;48.756;9.226;2022-10-18T14:13:05;2.40;;;2.17;;
18425;SDS011;9340;48.756;9.226;2022-10-18T14:15:42;6.72;;;2.65;;
18425;SDS011;9340;48.756;9.226;2022-10-18T14:18:14;2.78;;;2.40;;
18425;SDS011;9340;48.756;9.226;2022-10-18T14:20:44;4.80;;;2.53;;
18425;SDS011;9340;48.756;9.226;2022-10-18T14:23:16;3.83;;;2.25;;
18425;SDS011;9340;48.756;9.226;2022-10-18T14:25:46;3.15;;;2.38;;
18425;SDS011;9340;48.756;9.226;2022-10-18T14:28:14;2.58;;;2.38;;
18425;SDS011;9340;48.756;9.226;2022-10-18T14:30:52;3.05;;;2.80;;
18425;SDS011;9340;48.756;9.226;2022-10-18T14:33:27;5.35;;;2.80;;
18425;SDS011;9340;48.756;9.226;2022-10-18T14:36:00;3.33;;;2.80;;
18425;SDS011;9340;48.756;9.226;2022-10-18T14:38:30;4.30;;;2.88;;
18425;SDS011;9340;48.756;9.226;2022-10-18T14:41:04;5.50;;;3.10;;
18425;SDS011;9340;48.756;9.226;2022-10-18T14:43:38;4.55;;;2.80;;
18425;SDS011;9340;48.756;9.226;2022-10-18T14:46:08;3.53;;;3.10;;
18425;SDS011;9340;48.756;9.226;2022-10-18T14:48:41;4.47;;;3.22;;
18425;SDS011;9340;48.756;9.226;2022-10-18T14:51:09;3.70;;;3.20;;
18425;SDS011;9340;48.756;9.226;2022-10-18T14:53:38;5.82;;;3.50;;
18425;SDS011;9340;48.756;9.226;2022-10-18T14:56:06;5.35;;;2.95;;
18425;SDS011;9340;48.756;9.226;2022-10-18T14:58:33;5.53;;;3.05;;
18425;SDS011;9340;48.756;9.226;2022-10-18T15:01:02;6.45;;;3.65;;
18425;SDS011;9340;48.756;9.226;2022-10-18T15:03:30;4.72;;;3.30;;
18425;SDS011;9340;48.756;9.226;2022-10-18T15:06:00;4.50;;;2.95;;
18425;SDS011;9340;48.756;9.226;2022-10-18T15:08:31;5.28;;;3.42;;
18425;SDS011;9340;48.756;9.226;2022-10-18T15:11:01;6.90;;;3.53;;
18425;SDS011;9340;48.756;9.226;2022-10-18T15:13:29;3.25;;;2.92;;
18425;SDS011;9340;48.756;9.226;2022-10-18T15:15:57;3.42;;;2.95;;
18425;SDS011;9340;48.756;9.226;2022-10-18T15:18:25;5.28;;;3.40;;
18425;SDS011;9340;48.756;9.226;2022-10-18T15:21:09;3.45;;;3.13;;
18425;SDS011;9340;48.756;9.226;2022-10-18T15:23:47;3.58;;;2.97;;
18425;SDS011;9340;48.756;9.226;2022-10-18T15:26:14;5.30;;;3.40;;
18425;SDS011;9340;48.756;9.226;2022-10-18T15:28:46;4.47;;;2.55;;
18425;SDS011;9340;48.756;9.226;2022-10-18T15:31:21;5.25;;;3.30;;
18425;SDS011;9340;48.756;9.226;2022-10-18T15:33:50;6.13;;;3.83;;